createdAt,value
2023-03-26T00:00:31.357Z,23.33
2023-03-26T00:01:02.820Z,23.36
2023-03-26T00:01:34.258Z,23.34
2023-03-26T00:02:05.789Z,23.32
2023-03-26T00:02:37.427Z,23.32
2023-03-26T00:03:08.977Z,23.34
2023-03-26T00:03:40.434Z,23.36
2023-03-26T00:04:11.933Z,23.34
2023-03-26T00:04:43.341Z,23.31
2023-03-26T00:05:14.865Z,23.33
2023-03-26T00:05:46.348Z,23.35
2023-03-26T00:06:17.964Z,23.34
2023-03-26T00:06:49.381Z,23.31
2023-03-26T00:07:20.888Z,23.31
2023-03-26T00:07:52.397Z,23.33
2023-03-26T00:08:23.942Z,23.34
2023-03-26T00:08:55.394Z,23.35
2023-03-26T00:09:26.905Z,23.35
2023-03-26T00:09:58.368Z,23.35
2023-03-26T00:10:29.933Z,23.33
2023-03-26T00:11:01.430Z,23.34
2023-03-26T00:11:32.967Z,23.35
2023-03-26T00:12:04.461Z,23.32
2023-03-26T00:12:36.018Z,23.32
2023-03-26T00:13:10.404Z,23.33
2023-03-26T00:13:41.813Z,23.35
2023-03-26T00:14:13.381Z,23.32
2023-03-26T00:14:44.813Z,23.33
2023-03-26T00:15:16.300Z,23.30
2023-03-26T00:15:47.753Z,23.31
2023-03-26T00:16:19.250Z,23.33
2023-03-26T00:16:50.726Z,23.35
2023-03-26T00:17:22.340Z,23.34
2023-03-26T00:17:53.813Z,23.31
2023-03-26T00:18:25.368Z,23.29
2023-03-26T00:18:58.023Z,23.30
2023-03-26T00:19:29.548Z,23.34
2023-03-26T00:20:01.010Z,23.33
2023-03-26T00:20:32.499Z,23.34
2023-03-26T00:21:06.273Z,23.34
2023-03-26T00:21:37.935Z,23.32
2023-03-26T00:22:09.426Z,23.31
2023-03-26T00:22:40.860Z,23.35
2023-03-26T00:23:14.114Z,23.33
2023-03-26T00:23:45.639Z,23.34
2023-03-26T00:24:18.935Z,23.34
2023-03-26T00:24:50.350Z,23.35
2023-03-26T00:25:21.844Z,23.33
2023-03-26T00:25:53.392Z,23.32
2023-03-26T00:26:25.015Z,23.35
2023-03-26T00:26:56.403Z,23.34
2023-03-26T00:27:27.943Z,23.36
2023-03-26T00:27:59.374Z,23.36
2023-03-26T00:28:31.013Z,23.34
2023-03-26T00:29:02.514Z,23.34
2023-03-26T00:29:34.074Z,23.35
2023-03-26T00:30:08.458Z,23.33
2023-03-26T00:30:39.946Z,23.33
2023-03-26T00:31:11.454Z,23.33
2023-03-26T00:31:42.951Z,23.35
2023-03-26T00:32:14.354Z,23.35
2023-03-26T00:32:45.758Z,23.34
2023-03-26T00:33:25.546Z,23.33
2023-03-26T00:33:57.006Z,23.34
2023-03-26T00:34:28.469Z,23.34
2023-03-26T00:34:59.902Z,23.31
2023-03-26T00:35:31.386Z,23.31
2023-03-26T00:36:04.394Z,23.31
2023-03-26T00:36:36.141Z,23.30
2023-03-26T00:37:07.824Z,23.33
2023-03-26T00:37:39.246Z,23.31
2023-03-26T00:38:10.692Z,23.32
2023-03-26T00:38:44.789Z,23.31
2023-03-26T00:39:16.329Z,23.30
2023-03-26T00:39:47.795Z,23.32
2023-03-26T00:40:19.375Z,23.35
2023-03-26T00:40:53.538Z,23.30
2023-03-26T00:41:25.127Z,23.29
2023-03-26T00:41:56.797Z,23.32
2023-03-26T00:42:28.286Z,23.33
2023-03-26T00:42:59.894Z,23.33
2023-03-26T00:43:31.540Z,23.33
2023-03-26T00:44:03.042Z,23.32
2023-03-26T00:44:34.602Z,23.35
2023-03-26T00:45:08.352Z,23.35
2023-03-26T00:45:39.786Z,23.33
2023-03-26T00:46:11.270Z,23.32
2023-03-26T00:46:42.893Z,23.33
2023-03-26T00:47:14.402Z,23.30
2023-03-26T00:47:45.853Z,23.30
2023-03-26T00:48:17.350Z,23.32
2023-03-26T00:48:48.773Z,23.34
2023-03-26T00:49:20.194Z,23.35
2023-03-26T00:49:51.587Z,23.36
2023-03-26T00:50:23.113Z,23.36
2023-03-26T00:50:54.575Z,23.34
2023-03-26T00:51:26.094Z,23.35
2023-03-26T00:51:57.522Z,23.33
2023-03-26T00:52:28.923Z,23.34
2023-03-26T00:53:00.416Z,23.35
2023-03-26T00:53:31.957Z,23.35
2023-03-26T00:54:03.579Z,23.38
2023-03-26T00:54:34.983Z,23.35
2023-03-26T00:55:06.523Z,23.34
2023-03-26T00:55:40.703Z,23.34
2023-03-26T00:56:12.137Z,23.34
2023-03-26T00:56:43.597Z,23.33
2023-03-26T00:57:25.664Z,23.35
2023-03-26T00:58:00.732Z,23.35
2023-03-26T00:58:32.181Z,23.34
2023-03-26T00:59:04.236Z,23.34
2023-03-26T00:59:35.836Z,23.34
2023-03-26T01:00:07.307Z,23.37
2023-03-26T01:00:38.731Z,23.35
2023-03-26T01:01:10.220Z,23.37
2023-03-26T01:01:41.815Z,23.32
2023-03-26T01:02:13.314Z,23.29
2023-03-26T01:02:45.076Z,23.33
2023-03-26T01:03:24.963Z,23.34
2023-03-26T01:04:08.809Z,23.33
2023-03-26T01:04:40.997Z,23.31
2023-03-26T01:05:12.647Z,23.32
2023-03-26T01:05:44.169Z,23.34
2023-03-26T01:06:15.633Z,23.34
2023-03-26T01:06:47.132Z,23.34
2023-03-26T01:07:18.542Z,23.32
2023-03-26T01:07:49.937Z,23.34
2023-03-26T01:08:21.391Z,23.32
2023-03-26T01:08:52.885Z,23.32
2023-03-26T01:09:24.403Z,23.34
2023-03-26T01:09:55.869Z,23.32
2023-03-26T01:10:27.330Z,23.31
2023-03-26T01:10:58.743Z,23.32
2023-03-26T01:11:30.293Z,23.35
2023-03-26T01:12:01.795Z,23.34
2023-03-26T01:12:33.276Z,23.37
2023-03-26T01:13:07.175Z,23.35
2023-03-26T01:13:38.697Z,23.36
2023-03-26T01:14:10.394Z,23.35
2023-03-26T01:14:41.825Z,23.34
2023-03-26T01:15:13.342Z,23.34
2023-03-26T01:15:44.770Z,23.34
2023-03-26T01:16:16.280Z,23.33
2023-03-26T01:16:47.740Z,23.33
2023-03-26T01:17:19.175Z,23.34
2023-03-26T01:17:50.651Z,23.33
2023-03-26T01:18:22.228Z,23.35
2023-03-26T01:18:53.706Z,23.34
2023-03-26T01:19:27.077Z,23.35
2023-03-26T01:19:58.601Z,23.36
2023-03-26T01:20:30.061Z,23.36
2023-03-26T01:21:01.497Z,23.35
2023-03-26T01:21:32.954Z,23.35
2023-03-26T01:22:04.369Z,23.35
2023-03-26T01:22:35.904Z,23.34
2023-03-26T01:23:07.416Z,23.33
2023-03-26T01:23:38.872Z,23.35
2023-03-26T01:24:10.466Z,23.35
2023-03-26T01:24:41.953Z,23.35
2023-03-26T01:25:13.498Z,23.35
2023-03-26T01:25:44.988Z,23.35
2023-03-26T01:26:16.459Z,23.34
2023-03-26T01:26:47.948Z,23.34
2023-03-26T01:27:19.558Z,23.34
2023-03-26T01:27:51.074Z,23.30
2023-03-26T01:28:22.473Z,23.32
2023-03-26T01:28:53.947Z,23.32
2023-03-26T01:29:25.519Z,23.34
2023-03-26T01:29:56.922Z,23.36
2023-03-26T01:30:29.462Z,23.35
2023-03-26T01:31:00.873Z,23.34
2023-03-26T01:31:32.447Z,23.36
2023-03-26T01:32:03.875Z,23.37
2023-03-26T01:32:35.690Z,23.37
2023-03-26T01:33:07.426Z,23.32
2023-03-26T01:33:39.031Z,23.34
2023-03-26T01:34:10.620Z,23.37
2023-03-26T01:34:42.061Z,23.36
2023-03-26T01:35:13.572Z,23.36
2023-03-26T01:35:47.176Z,23.36
2023-03-26T01:36:18.646Z,23.35
2023-03-26T01:36:50.089Z,23.37
2023-03-26T01:37:21.478Z,23.34
2023-03-26T01:37:52.942Z,23.34
2023-03-26T01:38:25.932Z,23.34
2023-03-26T01:38:58.443Z,23.33
2023-03-26T01:39:30.835Z,23.32
2023-03-26T01:40:02.311Z,23.34
2023-03-26T01:40:33.742Z,23.34
2023-03-26T01:41:05.202Z,23.32
2023-03-26T01:41:36.909Z,23.33
2023-03-26T01:42:08.417Z,23.36
2023-03-26T01:42:39.892Z,23.34
2023-03-26T01:43:11.352Z,23.33
2023-03-26T01:43:42.769Z,23.34
2023-03-26T01:44:17.035Z,23.35
2023-03-26T01:44:48.527Z,23.34
2023-03-26T01:45:20.123Z,23.35
2023-03-26T01:45:54.568Z,23.34
2023-03-26T01:46:26.219Z,23.36
2023-03-26T01:46:57.675Z,23.36
2023-03-26T01:47:33.773Z,23.37
2023-03-26T01:48:05.265Z,23.35
2023-03-26T01:48:36.822Z,23.37
2023-03-26T01:49:11.279Z,23.36
2023-03-26T01:49:42.669Z,23.37
2023-03-26T01:50:14.259Z,23.35
2023-03-26T01:50:45.647Z,23.36
2023-03-26T01:51:18.810Z,23.37
2023-03-26T01:51:50.265Z,23.36
2023-03-26T01:52:21.706Z,23.34
2023-03-26T01:52:53.196Z,23.36
2023-03-26T01:53:24.619Z,23.35
2023-03-26T01:53:56.358Z,23.36
2023-03-26T01:54:27.816Z,23.37
2023-03-26T01:54:59.312Z,23.38
2023-03-26T01:55:33.332Z,23.37
2023-03-26T01:56:04.828Z,23.37
2023-03-26T01:56:36.290Z,23.38
2023-03-26T01:57:07.749Z,23.36
2023-03-26T01:57:39.311Z,23.37
2023-03-26T01:58:10.830Z,23.38
2023-03-26T01:58:42.351Z,23.36
2023-03-26T01:59:13.747Z,23.36
2023-03-26T01:59:45.247Z,23.35
2023-03-26T02:00:16.789Z,23.36
2023-03-26T02:00:48.276Z,23.35
2023-03-26T02:01:19.824Z,23.33
2023-03-26T02:01:51.448Z,23.34
2023-03-26T02:02:23.038Z,23.33
2023-03-26T02:02:54.607Z,23.34
2023-03-26T02:03:29.155Z,23.35
2023-03-26T02:04:00.680Z,23.35
2023-03-26T02:04:32.134Z,23.37
2023-03-26T02:05:03.599Z,23.37
2023-03-26T02:05:35.123Z,23.36
2023-03-26T02:06:06.588Z,23.37
2023-03-26T02:06:38.082Z,23.35
2023-03-26T02:07:09.706Z,23.35
2023-03-26T02:07:41.113Z,23.36
2023-03-26T02:08:12.560Z,23.34
2023-03-26T02:08:44.002Z,23.37
2023-03-26T02:09:15.450Z,23.39
2023-03-26T02:09:46.851Z,23.37
2023-03-26T02:10:21.284Z,23.37
2023-03-26T02:10:52.716Z,23.34
2023-03-26T02:11:33.553Z,23.34
2023-03-26T02:12:06.799Z,23.36
2023-03-26T02:12:38.401Z,23.38
2023-03-26T02:13:09.789Z,23.37
2023-03-26T02:13:43.842Z,23.37
2023-03-26T02:14:15.367Z,23.37
2023-03-26T02:14:46.848Z,23.37
2023-03-26T02:15:18.374Z,23.39
2023-03-26T02:15:49.872Z,23.36
2023-03-26T02:16:21.324Z,23.36
2023-03-26T02:16:52.809Z,23.39
2023-03-26T02:17:24.648Z,23.37
2023-03-26T02:17:56.131Z,23.39
2023-03-26T02:18:27.666Z,23.38
2023-03-26T02:18:59.097Z,23.38
2023-03-26T02:19:30.617Z,23.41
2023-03-26T02:20:04.835Z,23.39
2023-03-26T02:20:36.293Z,23.39
2023-03-26T02:21:07.953Z,23.38
2023-03-26T02:21:39.545Z,23.38
2023-03-26T02:22:11.306Z,23.38
2023-03-26T02:22:42.893Z,23.36
2023-03-26T02:23:14.331Z,23.37
2023-03-26T02:23:45.820Z,23.38
2023-03-26T02:24:17.284Z,23.39
2023-03-26T02:24:48.947Z,23.40
2023-03-26T02:25:20.364Z,23.38
2023-03-26T02:25:51.989Z,23.38
2023-03-26T02:26:23.626Z,23.37
2023-03-26T02:26:55.170Z,23.37
2023-03-26T02:27:26.580Z,23.36
2023-03-26T02:27:58.190Z,23.37
2023-03-26T02:28:29.581Z,23.39
2023-03-26T02:29:01.213Z,23.42
2023-03-26T02:29:32.622Z,23.42
2023-03-26T02:30:06.925Z,23.42
2023-03-26T02:30:38.459Z,23.39
2023-03-26T02:31:09.944Z,23.39
2023-03-26T02:31:41.661Z,23.37
2023-03-26T02:32:13.260Z,23.37
2023-03-26T02:32:44.746Z,23.35
2023-03-26T02:33:16.438Z,23.38
2023-03-26T02:33:47.889Z,23.37
2023-03-26T02:34:19.366Z,23.38
2023-03-26T02:34:50.764Z,23.38
2023-03-26T02:35:22.282Z,23.37
2023-03-26T02:35:54.056Z,23.39
2023-03-26T02:36:25.853Z,23.38
2023-03-26T02:36:57.407Z,23.40
2023-03-26T02:37:28.934Z,23.38
2023-03-26T02:38:03.197Z,23.39
2023-03-26T02:38:34.738Z,23.40
2023-03-26T02:39:06.183Z,23.41
2023-03-26T02:39:37.788Z,23.40
2023-03-26T02:40:09.240Z,23.40
2023-03-26T02:40:40.859Z,23.40
2023-03-26T02:41:12.317Z,23.40
2023-03-26T02:41:43.834Z,23.37
2023-03-26T02:42:15.269Z,23.38
2023-03-26T02:42:49.579Z,23.37
2023-03-26T02:43:21.175Z,23.37
2023-03-26T02:43:52.553Z,23.39
2023-03-26T02:44:24.128Z,23.38
2023-03-26T02:44:55.574Z,23.39
2023-03-26T02:45:27.200Z,23.37
2023-03-26T02:45:58.970Z,23.37
2023-03-26T02:46:30.589Z,23.38
2023-03-26T02:47:02.132Z,23.39
2023-03-26T02:47:33.559Z,23.40
2023-03-26T02:48:05.151Z,23.38
2023-03-26T02:48:36.724Z,23.38
2023-03-26T02:49:08.267Z,23.37
2023-03-26T02:49:41.146Z,23.37
2023-03-26T02:50:12.552Z,23.36
2023-03-26T02:50:43.963Z,23.35
2023-03-26T02:51:15.528Z,23.35
2023-03-26T02:51:46.996Z,23.34
2023-03-26T02:52:18.618Z,23.37
2023-03-26T02:52:50.315Z,23.36
2023-03-26T02:53:21.756Z,23.36
2023-03-26T02:53:53.192Z,23.36
2023-03-26T02:54:24.749Z,23.36
2023-03-26T02:54:56.171Z,23.37
2023-03-26T02:55:27.644Z,23.37
2023-03-26T02:55:59.098Z,23.37
2023-03-26T02:56:30.701Z,23.36
2023-03-26T02:57:02.217Z,23.38
2023-03-26T02:57:33.829Z,23.39
2023-03-26T02:58:05.237Z,23.37
2023-03-26T02:58:36.788Z,23.36
2023-03-26T02:59:08.499Z,23.36
2023-03-26T02:59:40.029Z,23.37
2023-03-26T03:00:11.474Z,23.36
2023-03-26T03:00:43.000Z,23.38
2023-03-26T03:01:17.452Z,23.36
2023-03-26T03:01:49.137Z,23.34
2023-03-26T03:02:20.562Z,23.37
2023-03-26T03:02:52.177Z,23.38
2023-03-26T03:03:23.735Z,23.37
2023-03-26T03:03:55.274Z,23.36
2023-03-26T03:04:26.723Z,23.35
2023-03-26T03:04:58.268Z,23.34
2023-03-26T03:05:29.653Z,23.37
2023-03-26T03:06:01.174Z,23.37
2023-03-26T03:06:32.699Z,23.35
2023-03-26T03:07:04.223Z,23.34
2023-03-26T03:07:35.633Z,23.33
2023-03-26T03:08:07.052Z,23.34
2023-03-26T03:08:38.591Z,23.34
2023-03-26T03:09:10.118Z,23.36
2023-03-26T03:09:41.572Z,23.35
2023-03-26T03:10:16.077Z,23.34
2023-03-26T03:10:47.488Z,23.35
2023-03-26T03:11:18.939Z,23.33
2023-03-26T03:11:50.451Z,23.33
2023-03-26T03:12:21.861Z,23.34
2023-03-26T03:12:53.298Z,23.35
2023-03-26T03:13:24.818Z,23.36
2023-03-26T03:13:56.273Z,23.35
2023-03-26T03:14:27.775Z,23.32
2023-03-26T03:14:59.227Z,23.33
2023-03-26T03:15:30.898Z,23.34
2023-03-26T03:16:02.358Z,23.35
2023-03-26T03:16:33.847Z,23.34
2023-03-26T03:17:05.407Z,23.35
2023-03-26T03:17:36.855Z,23.35
2023-03-26T03:18:08.357Z,23.34
2023-03-26T03:18:39.893Z,23.33
2023-03-26T03:19:11.351Z,23.32
2023-03-26T03:19:43.008Z,23.34
2023-03-26T03:20:14.445Z,23.34
2023-03-26T03:20:45.961Z,23.33
2023-03-26T03:21:17.552Z,23.31
2023-03-26T03:21:49.073Z,23.33
2023-03-26T03:22:20.483Z,23.33
2023-03-26T03:22:52.016Z,23.32
2023-03-26T03:23:23.402Z,23.32
2023-03-26T03:24:00.195Z,23.34
2023-03-26T03:24:34.666Z,23.31
2023-03-26T03:25:07.218Z,23.33
2023-03-26T03:25:38.633Z,23.33
2023-03-26T03:26:10.212Z,23.31
2023-03-26T03:26:41.697Z,23.32
2023-03-26T03:27:13.264Z,23.33
2023-03-26T03:27:46.749Z,23.33
2023-03-26T03:28:18.213Z,23.37
2023-03-26T03:28:49.706Z,23.34
2023-03-26T03:29:21.075Z,23.36
2023-03-26T03:29:52.486Z,23.37
2023-03-26T03:30:23.915Z,23.35
2023-03-26T03:30:55.502Z,23.36
2023-03-26T03:31:27.016Z,23.35
2023-03-26T03:31:58.649Z,23.36
2023-03-26T03:32:30.078Z,23.35
2023-03-26T03:33:01.613Z,23.36
2023-03-26T03:33:33.036Z,23.37
2023-03-26T03:34:04.543Z,23.37
2023-03-26T03:34:35.932Z,23.38
2023-03-26T03:35:07.354Z,23.39
2023-03-26T03:35:38.958Z,23.39
2023-03-26T03:36:10.510Z,23.38
2023-03-26T03:36:52.158Z,23.39
2023-03-26T03:37:23.754Z,23.36
2023-03-26T03:37:55.222Z,23.34
2023-03-26T03:38:26.734Z,23.36
2023-03-26T03:38:58.130Z,23.37
2023-03-26T03:39:29.560Z,23.37
2023-03-26T03:40:01.026Z,23.38
2023-03-26T03:40:35.574Z,23.37
2023-03-26T03:41:06.990Z,23.35
2023-03-26T03:41:38.435Z,23.37
2023-03-26T03:42:09.867Z,23.36
2023-03-26T03:42:44.507Z,23.33
2023-03-26T03:43:16.019Z,23.35
2023-03-26T03:43:47.564Z,23.35
2023-03-26T03:44:19.051Z,23.37
2023-03-26T03:44:50.573Z,23.36
2023-03-26T03:45:22.026Z,23.35
2023-03-26T03:45:53.631Z,23.35
2023-03-26T03:46:26.849Z,23.37
2023-03-26T03:46:58.352Z,23.35
2023-03-26T03:47:29.754Z,23.36
2023-03-26T03:48:01.407Z,23.34
2023-03-26T03:48:33.029Z,23.36
2023-03-26T03:49:04.443Z,23.35
2023-03-26T03:49:35.833Z,23.35
2023-03-26T03:50:07.247Z,23.36
2023-03-26T03:50:38.844Z,23.35
2023-03-26T03:51:10.336Z,23.35
2023-03-26T03:51:41.795Z,23.33
2023-03-26T03:52:13.247Z,23.34
2023-03-26T03:52:44.686Z,23.33
2023-03-26T03:53:18.806Z,23.31
2023-03-26T03:53:50.223Z,23.30
2023-03-26T03:54:21.757Z,23.29
2023-03-26T03:54:53.207Z,23.33
2023-03-26T03:55:27.367Z,23.33
2023-03-26T03:55:58.922Z,23.34
2023-03-26T03:56:30.477Z,23.35
2023-03-26T03:57:02.167Z,23.35
2023-03-26T03:57:33.851Z,23.34
2023-03-26T03:58:05.247Z,23.34
2023-03-26T03:58:36.672Z,23.35
2023-03-26T03:59:08.133Z,23.34
2023-03-26T03:59:47.954Z,23.33
2023-03-26T04:00:19.847Z,23.35
2023-03-26T04:00:51.401Z,23.35
2023-03-26T04:01:22.995Z,23.36
2023-03-26T04:01:54.485Z,23.33
2023-03-26T04:02:26.438Z,23.30
2023-03-26T04:02:58.451Z,23.33
2023-03-26T04:03:33.909Z,23.31
2023-03-26T04:04:06.020Z,23.32
2023-03-26T04:04:37.505Z,23.31
2023-03-26T04:05:09.106Z,23.31
2023-03-26T04:05:40.499Z,23.34
2023-03-26T04:06:14.612Z,23.35
2023-03-26T04:06:48.529Z,23.32
2023-03-26T04:07:19.977Z,23.33
2023-03-26T04:07:51.527Z,23.30
2023-03-26T04:08:22.983Z,23.32
2023-03-26T04:08:54.541Z,23.32
2023-03-26T04:09:26.016Z,23.30
2023-03-26T04:09:57.530Z,23.31
2023-03-26T04:10:28.964Z,23.31
2023-03-26T04:11:03.213Z,23.31
2023-03-26T04:11:34.746Z,23.32
2023-03-26T04:12:09.218Z,23.32
2023-03-26T04:12:40.909Z,23.32
2023-03-26T04:13:12.319Z,23.32
2023-03-26T04:13:43.891Z,23.34
2023-03-26T04:14:18.424Z,23.33
2023-03-26T04:14:49.963Z,23.32
2023-03-26T04:15:21.432Z,23.32
2023-03-26T04:15:53.177Z,23.33
2023-03-26T04:16:24.798Z,23.35
2023-03-26T04:16:56.454Z,23.33
2023-03-26T04:17:30.506Z,23.33
2023-03-26T04:18:02.216Z,23.33
2023-03-26T04:18:33.847Z,23.34
2023-03-26T04:19:05.265Z,23.32
2023-03-26T04:19:36.698Z,23.33
2023-03-26T04:20:08.207Z,23.33
2023-03-26T04:20:39.623Z,23.33
2023-03-26T04:21:11.150Z,23.31
2023-03-26T04:21:42.609Z,23.33
2023-03-26T04:22:14.133Z,23.34
2023-03-26T04:22:45.610Z,23.33
2023-03-26T04:23:17.174Z,23.33
2023-03-26T04:23:48.594Z,23.36
2023-03-26T04:24:20.031Z,23.35
2023-03-26T04:24:51.482Z,23.33
2023-03-26T04:25:22.894Z,23.31
2023-03-26T04:25:54.640Z,23.32
2023-03-26T04:26:26.332Z,23.34
2023-03-26T04:26:57.816Z,23.34
2023-03-26T04:27:29.272Z,23.33
2023-03-26T04:28:01.030Z,23.31
2023-03-26T04:28:32.533Z,23.32
2023-03-26T04:29:04.021Z,23.32
2023-03-26T04:29:35.514Z,23.32
2023-03-26T04:30:06.897Z,23.30
2023-03-26T04:30:38.328Z,23.31
2023-03-26T04:31:09.803Z,23.32
2023-03-26T04:31:41.225Z,23.28
2023-03-26T04:32:12.714Z,23.30
2023-03-26T04:32:44.135Z,23.30
2023-03-26T04:33:15.678Z,23.33
2023-03-26T04:33:47.130Z,23.34
2023-03-26T04:34:18.616Z,23.34
2023-03-26T04:34:50.132Z,23.34
2023-03-26T04:35:24.726Z,23.35
2023-03-26T04:35:56.343Z,23.34
2023-03-26T04:36:27.984Z,23.34
2023-03-26T04:36:59.392Z,23.34
2023-03-26T04:37:36.790Z,23.35
2023-03-26T04:38:08.203Z,23.34
2023-03-26T04:38:40.043Z,23.35
2023-03-26T04:39:11.521Z,23.33
2023-03-26T04:39:42.902Z,23.34
2023-03-26T04:40:14.446Z,23.33
2023-03-26T04:40:45.854Z,23.33
2023-03-26T04:41:17.356Z,23.32
2023-03-26T04:41:48.822Z,23.32
2023-03-26T04:42:20.340Z,23.29
2023-03-26T04:42:51.822Z,23.28
2023-03-26T04:43:23.388Z,23.29
2023-03-26T04:43:54.899Z,23.27
2023-03-26T04:44:26.418Z,23.27
2023-03-26T04:44:58.065Z,23.27
2023-03-26T04:45:29.567Z,23.25
2023-03-26T04:46:01.006Z,23.26
2023-03-26T04:46:32.562Z,23.28
2023-03-26T04:47:04.132Z,23.28
2023-03-26T04:47:35.650Z,23.29
2023-03-26T04:48:07.157Z,23.28
2023-03-26T04:48:38.662Z,23.30
2023-03-26T04:49:13.288Z,23.30
2023-03-26T04:49:44.759Z,23.30
2023-03-26T04:50:16.191Z,23.29
2023-03-26T04:50:47.743Z,23.31
2023-03-26T04:51:19.145Z,23.31
2023-03-26T04:51:50.692Z,23.28
2023-03-26T04:52:22.116Z,23.29
2023-03-26T04:52:53.512Z,23.32
2023-03-26T04:53:25.034Z,23.32
2023-03-26T04:53:56.481Z,23.29
2023-03-26T04:54:28.008Z,23.29
2023-03-26T04:54:59.408Z,23.25
2023-03-26T04:55:30.910Z,23.25
2023-03-26T04:56:02.358Z,23.23
2023-03-26T04:56:33.800Z,23.26
2023-03-26T04:57:05.355Z,23.26
2023-03-26T04:57:36.731Z,23.27
2023-03-26T04:58:08.166Z,23.24
2023-03-26T04:58:39.605Z,23.27
2023-03-26T04:59:11.034Z,23.29
2023-03-26T04:59:42.480Z,23.31
2023-03-26T05:00:13.910Z,23.30
2023-03-26T05:00:45.492Z,23.29
2023-03-26T05:01:17.033Z,23.23
2023-03-26T05:01:48.525Z,23.26
2023-03-26T05:02:22.882Z,23.28
2023-03-26T05:02:54.493Z,23.24
2023-03-26T05:03:25.861Z,23.28
2023-03-26T05:03:57.523Z,23.23
2023-03-26T05:04:29.072Z,23.27
2023-03-26T05:05:00.616Z,23.27
2023-03-26T05:05:32.052Z,23.27
2023-03-26T05:06:03.583Z,23.27
2023-03-26T05:06:35.038Z,23.28
2023-03-26T05:07:06.674Z,23.29
2023-03-26T05:07:38.070Z,23.26
2023-03-26T05:08:09.635Z,23.27
2023-03-26T05:08:41.219Z,23.28
2023-03-26T05:09:12.787Z,23.28
2023-03-26T05:09:46.061Z,23.30
2023-03-26T05:10:17.466Z,23.29
2023-03-26T05:10:48.950Z,23.26
2023-03-26T05:11:23.159Z,23.30
2023-03-26T05:11:56.862Z,23.30
2023-03-26T05:12:28.368Z,23.31
2023-03-26T05:12:59.760Z,23.28
2023-03-26T05:13:31.200Z,23.28
2023-03-26T05:14:02.614Z,23.29
2023-03-26T05:14:34.200Z,23.30
2023-03-26T05:15:08.565Z,23.27
2023-03-26T05:15:40.067Z,23.28
2023-03-26T05:16:11.577Z,23.28
2023-03-26T05:16:43.204Z,23.28
2023-03-26T05:17:17.473Z,23.28
2023-03-26T05:17:51.957Z,23.28
2023-03-26T05:18:23.423Z,23.29
2023-03-26T05:18:55.180Z,23.25
2023-03-26T05:19:29.116Z,23.25
2023-03-26T05:20:00.674Z,23.26
2023-03-26T05:20:32.114Z,23.26
2023-03-26T05:21:03.675Z,23.25
2023-03-26T05:21:35.235Z,23.25
2023-03-26T05:22:06.682Z,23.24
2023-03-26T05:22:38.268Z,23.25
2023-03-26T05:23:09.742Z,23.26
2023-03-26T05:23:41.190Z,23.27
2023-03-26T05:24:12.591Z,23.28
2023-03-26T05:24:44.000Z,23.28
2023-03-26T05:25:18.399Z,23.27
2023-03-26T05:25:52.155Z,23.29
2023-03-26T05:26:23.694Z,23.30
2023-03-26T05:26:55.165Z,23.31
2023-03-26T05:27:26.584Z,23.33
2023-03-26T05:27:58.048Z,23.28
2023-03-26T05:28:29.477Z,23.28
2023-03-26T05:29:00.887Z,23.29
2023-03-26T05:29:32.370Z,23.29
2023-03-26T05:30:07.014Z,23.27
2023-03-26T05:30:38.473Z,23.30
2023-03-26T05:31:09.905Z,23.26
2023-03-26T05:31:41.280Z,23.30
2023-03-26T05:32:12.691Z,23.26
2023-03-26T05:32:46.836Z,23.31
2023-03-26T05:33:18.282Z,23.32
2023-03-26T05:33:49.822Z,23.30
2023-03-26T05:34:24.205Z,23.29
2023-03-26T05:34:55.649Z,23.27
2023-03-26T05:35:27.120Z,23.27
2023-03-26T05:35:58.677Z,23.26
2023-03-26T05:36:30.230Z,23.26
2023-03-26T05:37:01.704Z,23.30
2023-03-26T05:37:33.200Z,23.29
2023-03-26T05:38:04.620Z,23.28
2023-03-26T05:38:36.043Z,23.30
2023-03-26T05:39:07.476Z,23.28
2023-03-26T05:39:41.490Z,23.27
2023-03-26T05:40:12.964Z,23.27
2023-03-26T05:40:44.526Z,23.29
2023-03-26T05:41:16.102Z,23.28
2023-03-26T05:41:47.576Z,23.29
2023-03-26T05:42:19.014Z,23.31
2023-03-26T05:42:50.793Z,23.31
2023-03-26T05:43:22.235Z,23.28
2023-03-26T05:43:53.686Z,23.31
2023-03-26T05:44:25.165Z,23.29
2023-03-26T05:44:56.706Z,23.29
2023-03-26T05:45:28.127Z,23.29
2023-03-26T05:45:59.674Z,23.28
2023-03-26T05:46:31.295Z,23.29
2023-03-26T05:47:02.884Z,23.29
2023-03-26T05:47:34.420Z,23.27
2023-03-26T05:48:06.019Z,23.27
2023-03-26T05:48:37.513Z,23.25
2023-03-26T05:49:11.337Z,23.26
2023-03-26T05:49:42.849Z,23.26
2023-03-26T05:50:14.328Z,23.27
2023-03-26T05:50:45.817Z,23.27
2023-03-26T05:51:17.214Z,23.26
2023-03-26T05:51:48.701Z,23.25
2023-03-26T05:52:20.173Z,23.27
2023-03-26T05:52:51.730Z,23.23
2023-03-26T05:53:23.193Z,23.24
2023-03-26T05:53:54.652Z,23.22
2023-03-26T05:54:27.145Z,23.21
2023-03-26T05:54:58.580Z,23.25
2023-03-26T05:55:30.050Z,23.26
2023-03-26T05:56:01.562Z,23.29
2023-03-26T05:56:33.006Z,23.27
2023-03-26T05:57:04.621Z,23.29
2023-03-26T05:57:36.101Z,23.26
2023-03-26T05:58:07.723Z,23.28
2023-03-26T05:58:39.197Z,23.29
2023-03-26T05:59:10.709Z,23.29
2023-03-26T05:59:42.296Z,23.25
2023-03-26T06:00:13.687Z,23.28
2023-03-26T06:00:45.213Z,23.25
2023-03-26T06:01:16.781Z,23.27
2023-03-26T06:01:51.662Z,23.25
2023-03-26T06:02:23.153Z,23.23
2023-03-26T06:02:56.722Z,23.26
2023-03-26T06:03:28.913Z,23.25
2023-03-26T06:04:00.701Z,23.24
2023-03-26T06:04:32.427Z,23.24
2023-03-26T06:05:03.967Z,23.24
2023-03-26T06:05:35.407Z,23.25
2023-03-26T06:06:06.925Z,23.26
2023-03-26T06:06:38.476Z,23.28
2023-03-26T06:07:10.002Z,23.30
2023-03-26T06:07:41.450Z,23.32
2023-03-26T06:08:12.981Z,23.30
2023-03-26T06:08:44.407Z,23.31
2023-03-26T06:09:16.002Z,23.30
2023-03-26T06:09:47.444Z,23.31
2023-03-26T06:10:19.252Z,23.31
2023-03-26T06:10:50.684Z,23.33
2023-03-26T06:11:22.212Z,23.33
2023-03-26T06:11:53.624Z,23.31
2023-03-26T06:12:25.163Z,23.28
2023-03-26T06:12:56.573Z,23.30
2023-03-26T06:13:27.983Z,23.29
2023-03-26T06:13:59.488Z,23.27
2023-03-26T06:14:30.968Z,23.26
2023-03-26T06:15:08.496Z,23.28
2023-03-26T06:15:40.040Z,23.28
2023-03-26T06:16:26.499Z,23.27
2023-03-26T06:16:59.405Z,23.29
2023-03-26T06:17:30.966Z,23.30
2023-03-26T06:18:05.556Z,23.31
2023-03-26T06:18:37.146Z,23.29
2023-03-26T06:19:08.838Z,23.30
2023-03-26T06:19:40.556Z,23.29
2023-03-26T06:20:14.921Z,23.28
2023-03-26T06:20:46.360Z,23.28
2023-03-26T06:21:17.882Z,23.25
2023-03-26T06:21:49.309Z,23.28
2023-03-26T06:22:20.813Z,23.29
2023-03-26T06:22:52.399Z,23.32
2023-03-26T06:23:23.966Z,23.31
2023-03-26T06:23:55.342Z,23.29
2023-03-26T06:24:26.894Z,23.28
2023-03-26T06:24:58.422Z,23.27
2023-03-26T06:25:29.936Z,23.29
2023-03-26T06:26:01.381Z,23.30
2023-03-26T06:26:32.891Z,23.32
2023-03-26T06:27:04.321Z,23.32
2023-03-26T06:27:35.777Z,23.29
2023-03-26T06:28:07.226Z,23.28
2023-03-26T06:28:38.653Z,23.28
2023-03-26T06:29:10.069Z,23.27
2023-03-26T06:29:41.502Z,23.30
2023-03-26T06:30:16.019Z,23.30
2023-03-26T06:30:50.622Z,23.29
2023-03-26T06:31:22.143Z,23.29
2023-03-26T06:31:53.608Z,23.27
2023-03-26T06:32:25.077Z,23.27
2023-03-26T06:32:56.636Z,23.30
2023-03-26T06:33:28.104Z,23.30
2023-03-26T06:33:59.542Z,23.28
2023-03-26T06:34:31.066Z,23.30
2023-03-26T06:35:02.495Z,23.30
2023-03-26T06:35:34.024Z,23.31
2023-03-26T06:36:05.695Z,23.31
2023-03-26T06:36:37.177Z,23.31
2023-03-26T06:37:08.729Z,23.32
2023-03-26T06:37:40.220Z,23.30
2023-03-26T06:38:11.685Z,23.29
2023-03-26T06:38:43.104Z,23.28
2023-03-26T06:39:14.617Z,23.30
2023-03-26T06:39:46.063Z,23.27
2023-03-26T06:40:17.595Z,23.28
2023-03-26T06:40:49.177Z,23.30
2023-03-26T06:41:20.688Z,23.33
2023-03-26T06:41:52.113Z,23.32
2023-03-26T06:42:32.042Z,23.34
2023-03-26T06:43:17.983Z,23.32
2023-03-26T06:43:49.497Z,23.31
2023-03-26T06:44:21.000Z,23.28
2023-03-26T06:44:52.899Z,23.30
2023-03-26T06:45:26.966Z,23.30
2023-03-26T06:45:58.424Z,23.33
2023-03-26T06:46:29.901Z,23.31
2023-03-26T06:47:01.303Z,23.31
2023-03-26T06:47:32.787Z,23.31
2023-03-26T06:48:04.496Z,23.33
2023-03-26T06:48:36.022Z,23.34
2023-03-26T06:49:07.435Z,23.34
2023-03-26T06:49:40.770Z,23.33
2023-03-26T06:50:12.351Z,23.33
2023-03-26T06:50:43.756Z,23.33
2023-03-26T06:51:17.956Z,23.31